Time;durP1;ratioP1;P1;durP2;ratioP2;P2;SDS_P1;SDS_P2;PMS_P1;PMS_P2;Temp;Humidity;BMP_temperature;BMP_pressure;BME280_temperature;BME280_humidity;BME280_pressure;Samples;Min_cycle;Max_cycle;Signal;HPM_P1;HPM_P2
2021/06/23 00:00:30;;;;;;;9.95;2.40;;;;;;;;;;5044505;28;20411;-66
2021/06/23 00:02:57;;;;;;;9.65;2.20;;;;;;;;;;5043326;28;20544;-66
2021/06/23 00:05:25;;;;;;;10.18;2.35;;;;;;;;;;5043998;28;20412;-66
2021/06/23 00:07:52;;;;;;;11.98;2.17;;;;;;;;;;5038860;28;20045;-66
2021/06/23 00:10:19;;;;;;;11.85;2.28;;;;;;;;;;5041784;28;20048;-66
2021/06/23 00:12:46;;;;;;;12.07;2.03;;;;;;;;;;5039433;28;20044;-66
2021/06/23 00:15:14;;;;;;;7.20;2.03;;;;;;;;;;5039676;28;20064;-66
2021/06/23 00:17:40;;;;;;;9.32;2.28;;;;;;;;;;5043667;28;20049;-66
2021/06/23 00:20:07;;;;;;;9.40;2.47;;;;;;;;;;5041646;28;20518;-66
2021/06/23 00:22:33;;;;;;;9.02;1.92;;;;;;;;;;5042614;28;20040;-66
2021/06/23 00:25:00;;;;;;;12.70;2.03;;;;;;;;;;5041578;28;20041;-65
2021/06/23 00:27:26;;;;;;;9.48;2.20;;;;;;;;;;5045049;28;20671;-66
2021/06/23 00:29:52;;;;;;;10.10;1.85;;;;;;;;;;5046839;28;20041;-66
2021/06/23 00:32:20;;;;;;;9.43;2.40;;;;;;;;;;5043677;28;20404;-66
2021/06/23 00:34:46;;;;;;;11.27;2.20;;;;;;;;;;5041012;28;20052;-66
2021/06/23 00:37:13;;;;;;;7.03;1.80;;;;;;;;;;5040363;28;20052;-66
2021/06/23 00:39:39;;;;;;;9.07;1.85;;;;;;;;;;5040615;28;20048;-66
2021/06/23 00:42:08;;;;;;;12.32;2.25;;;;;;;;;;5041021;28;20056;-66
2021/06/23 00:44:34;;;;;;;8.23;2.38;;;;;;;;;;5037157;28;20037;-65
2021/06/23 00:47:01;;;;;;;14.27;2.45;;;;;;;;;;5040270;28;20052;-66
2021/06/23 00:49:33;;;;;;;11.27;2.47;;;;;;;;;;5041466;28;20081;-66
2021/06/23 00:52:01;;;;;;;11.07;2.30;;;;;;;;;;5044892;28;20144;-66
2021/06/23 00:54:27;;;;;;;11.60;2.00;;;;;;;;;;5044099;28;20485;-66
2021/06/23 00:56:57;;;;;;;11.75;2.28;;;;;;;;;;5043340;28;20507;-66
2021/06/23 00:59:24;;;;;;;8.85;2.58;;;;;;;;;;5041463;28;20044;-66
2021/06/23 01:01:50;;;;;;;10.63;2.15;;;;;;;;;;5042437;28;20179;-66
2021/06/23 01:04:17;;;;;;;8.57;2.70;;;;;;;;;;5039638;28;20127;-65
2021/06/23 01:06:43;;;;;;;7.15;2.83;;;;;;;;;;5040919;28;20091;-65
2021/06/23 01:09:10;;;;;;;8.35;2.30;;;;;;;;;;5041925;28;20057;-66
2021/06/23 01:11:41;;;;;;;9.27;2.25;;;;;;;;;;5041836;28;20063;-66
2021/06/23 01:14:07;;;;;;;9.57;2.05;;;;;;;;;;5043700;28;20048;-66
2021/06/23 01:16:36;;;;;;;8.45;2.50;;;;;;;;;;5035127;28;20128;-66
2021/06/23 01:19:07;;;;;;;9.68;2.78;;;;;;;;;;5043734;28;20045;-66
2021/06/23 01:21:33;;;;;;;10.18;2.92;;;;;;;;;;5045317;28;20037;-66
2021/06/23 01:24:00;;;;;;;15.05;4.10;;;;;;;;;;5040927;28;20107;-66
2021/06/23 01:26:26;;;;;;;10.55;2.97;;;;;;;;;;5041901;28;20128;-66
2021/06/23 01:28:52;;;;;;;6.57;2.67;;;;;;;;;;5040827;28;20076;-65
2021/06/23 01:31:19;;;;;;;11.15;2.90;;;;;;;;;;5043544;28;20481;-66
2021/06/23 01:33:46;;;;;;;12.15;3.40;;;;;;;;;;5040890;28;20044;-66
2021/06/23 01:36:12;;;;;;;14.70;3.30;;;;;;;;;;5038561;28;20072;-66
2021/06/23 01:38:39;;;;;;;9.90;3.22;;;;;;;;;;5040572;28;20409;-66
2021/06/23 01:41:05;;;;;;;11.00;3.10;;;;;;;;;;5042187;28;20045;-66
2021/06/23 01:43:31;;;;;;;11.32;2.90;;;;;;;;;;5043335;28;20044;-65
2021/06/23 01:45:58;;;;;;;13.70;3.72;;;;;;;;;;5038206;28;20075;-66
2021/06/23 01:48:25;;;;;;;14.50;3.53;;;;;;;;;;5040516;28;20041;-66
2021/06/23 01:50:53;;;;;;;13.18;3.75;;;;;;;;;;5040135;28;20045;-65
2021/06/23 01:53:20;;;;;;;11.05;3.17;;;;;;;;;;5037544;28;20496;-66
2021/06/23 01:55:49;;;;;;;9.13;2.80;;;;;;;;;;5043710;28;20041;-66
2021/06/23 01:58:16;;;;;;;9.15;2.88;;;;;;;;;;5041434;28;20056;-65
2021/06/23 02:00:48;;;;;;;16.90;3.42;;;;;;;;;;5039803;28;20132;-66
2021/06/23 02:03:16;;;;;;;10.23;2.78;;;;;;;;;;5039678;28;20120;-66
2021/06/23 02:05:48;;;;;;;12.27;2.90;;;;;;;;;;5043979;28;20069;-66
2021/06/23 02:08:22;;;;;;;11.23;2.92;;;;;;;;;;5043720;28;20068;-66
2021/06/23 02:10:51;;;;;;;11.70;3.20;;;;;;;;;;5042220;28;20052;-66
2021/06/23 02:13:32;;;;;;;16.98;4.15;;;;;;;;;;5044823;28;20404;-65
2021/06/23 02:16:13;;;;;;;11.30;2.75;;;;;;;;;;5041217;28;20508;-66
2021/06/23 02:18:41;;;;;;;15.52;3.92;;;;;;;;;;5042089;28;20045;-66
2021/06/23 02:21:07;;;;;;;8.88;2.60;;;;;;;;;;5043389;28;20496;-66
2021/06/23 02:23:36;;;;;;;9.38;2.97;;;;;;;;;;5048577;28;20053;-66
2021/06/23 02:26:02;;;;;;;10.38;2.65;;;;;;;;;;5048957;28;20479;-66
2021/06/23 02:28:29;;;;;;;15.52;3.00;;;;;;;;;;5047048;28;20061;-65
2021/06/23 02:30:55;;;;;;;9.63;2.60;;;;;;;;;;5046427;28;20116;-66
2021/06/23 02:33:21;;;;;;;8.73;2.25;;;;;;;;;;5045329;28;20136;-66
2021/06/23 02:35:53;;;;;;;8.52;2.65;;;;;;;;;;5042480;28;20063;-67
2021/06/23 02:38:19;;;;;;;13.75;2.63;;;;;;;;;;5040570;28;20048;-65
2021/06/23 02:40:46;;;;;;;13.50;2.90;;;;;;;;;;5042461;28;20094;-66
2021/06/23 02:43:13;;;;;;;15.70;3.00;;;;;;;;;;5043221;28;20041;-66
2021/06/23 02:45:40;;;;;;;11.45;3.10;;;;;;;;;;5043341;28;20072;-66
2021/06/23 02:48:07;;;;;;;15.75;2.90;;;;;;;;;;5041212;28;20118;-65
2021/06/23 02:50:36;;;;;;;13.02;3.17;;;;;;;;;;5044416;28;20397;-66
2021/06/23 02:53:04;;;;;;;8.73;2.80;;;;;;;;;;5044311;28;20061;-66
2021/06/23 02:55:30;;;;;;;7.97;2.30;;;;;;;;;;5041380;28;20045;-66
2021/06/23 02:57:57;;;;;;;6.47;2.88;;;;;;;;;;5045516;28;20068;-66
2021/06/23 03:00:23;;;;;;;8.77;3.05;;;;;;;;;;5042369;28;20527;-66
2021/06/23 03:02:50;;;;;;;10.48;2.85;;;;;;;;;;5043512;28;20127;-66
2021/06/23 03:05:16;;;;;;;8.68;2.38;;;;;;;;;;5043713;28;20077;-66
2021/06/23 03:07:43;;;;;;;12.75;2.90;;;;;;;;;;5043306;28;20514;-66
2021/06/23 03:10:11;;;;;;;11.00;3.20;;;;;;;;;;5045342;28;20040;-66
2021/06/23 03:12:37;;;;;;;10.82;2.30;;;;;;;;;;5047052;28;20041;-65
2021/06/23 03:15:04;;;;;;;12.65;2.92;;;;;;;;;;5046080;28;20041;-66
2021/06/23 03:17:31;;;;;;;24.45;3.75;;;;;;;;;;5043825;28;20089;-66
2021/06/23 03:19:58;;;;;;;14.57;3.20;;;;;;;;;;5044751;28;20040;-66
2021/06/23 03:22:24;;;;;;;8.75;2.65;;;;;;;;;;5043331;28;20099;-65
2021/06/23 03:24:50;;;;;;;18.70;3.53;;;;;;;;;;5047314;28;20116;-66
2021/06/23 03:27:17;;;;;;;11.50;2.50;;;;;;;;;;5048005;28;20400;-66
2021/06/23 03:29:43;;;;;;;13.57;2.50;;;;;;;;;;5046290;28;20037;-65
2021/06/23 03:32:11;;;;;;;13.90;2.85;;;;;;;;;;5042691;28;20492;-65
2021/06/23 03:34:38;;;;;;;7.38;2.40;;;;;;;;;;5043160;28;20060;-66
2021/06/23 03:37:05;;;;;;;9.48;2.45;;;;;;;;;;5042019;28;20069;-66
2021/06/23 03:39:32;;;;;;;9.18;2.30;;;;;;;;;;5042557;28;20108;-66
2021/06/23 03:41:58;;;;;;;11.57;2.38;;;;;;;;;;5043479;28;20045;-66
2021/06/23 03:44:24;;;;;;;8.75;2.72;;;;;;;;;;5045399;28;20112;-66
2021/06/23 03:46:52;;;;;;;10.70;2.67;;;;;;;;;;5043111;28;20481;-66
2021/06/23 03:49:18;;;;;;;7.32;2.60;;;;;;;;;;5044371;28;20127;-66
2021/06/23 03:51:45;;;;;;;10.82;2.78;;;;;;;;;;5040060;28;20128;-65
2021/06/23 03:54:11;;;;;;;10.38;2.03;;;;;;;;;;5044658;28;20132;-66
2021/06/23 03:56:37;;;;;;;10.45;2.22;;;;;;;;;;5042337;28;20132;-66
2021/06/23 03:59:04;;;;;;;12.00;2.58;;;;;;;;;;5045867;28;20057;-66
2021/06/23 04:01:34;;;;;;;13.70;3.80;;;;;;;;;;5044477;28;20401;-66
2021/06/23 04:04:01;;;;;;;12.10;2.45;;;;;;;;;;5039954;28;20128;-66
2021/06/23 04:06:28;;;;;;;11.25;2.90;;;;;;;;;;5037546;28;20044;-65
2021/06/23 04:09:00;;;;;;;9.70;2.55;;;;;;;;;;5023624;28;20389;-66
2021/06/23 04:11:26;;;;;;;8.98;2.20;;;;;;;;;;5040848;28;20099;-66
2021/06/23 04:13:54;;;;;;;11.18;2.67;;;;;;;;;;5042493;28;21861;-66
2021/06/23 04:16:20;;;;;;;11.38;2.80;;;;;;;;;;5043591;28;20045;-66
2021/06/23 04:18:48;;;;;;;7.68;2.55;;;;;;;;;;5042397;28;20048;-65
2021/06/23 04:21:14;;;;;;;16.80;3.63;;;;;;;;;;5044183;28;20163;-66
2021/06/23 04:23:40;;;;;;;11.75;2.70;;;;;;;;;;5041945;28;20048;-65
2021/06/23 04:26:06;;;;;;;16.17;2.75;;;;;;;;;;5036935;28;20041;-66
2021/06/23 04:28:33;;;;;;;12.43;3.38;;;;;;;;;;5035375;28;20116;-66
2021/06/23 04:30:59;;;;;;;9.80;2.72;;;;;;;;;;5041863;28;20425;-66
2021/06/23 04:33:25;;;;;;;11.52;2.55;;;;;;;;;;5041379;28;20052;-66
2021/06/23 04:35:54;;;;;;;11.60;2.90;;;;;;;;;;5041302;28;20045;-66
2021/06/23 04:38:20;;;;;;;9.80;2.63;;;;;;;;;;5039533;28;20048;-66
2021/06/23 04:40:47;;;;;;;11.30;3.00;;;;;;;;;;5041086;28;20064;-66
2021/06/23 04:43:13;;;;;;;9.73;3.03;;;;;;;;;;5038943;28;20049;-65
2021/06/23 04:45:39;;;;;;;6.50;2.63;;;;;;;;;;5042789;28;20040;-65
2021/06/23 04:48:06;;;;;;;11.55;3.00;;;;;;;;;;5041511;28;20120;-66
2021/06/23 04:50:32;;;;;;;9.25;2.92;;;;;;;;;;5042497;28;20080;-66
2021/06/23 04:52:58;;;;;;;9.52;3.28;;;;;;;;;;5041128;28;20442;-66
2021/06/23 04:55:25;;;;;;;10.70;3.53;;;;;;;;;;5043244;28;20049;-66
2021/06/23 04:57:51;;;;;;;9.85;2.92;;;;;;;;;;5042854;28;20068;-66
2021/06/23 05:00:17;;;;;;;11.05;2.90;;;;;;;;;;5042184;28;20053;-66
2021/06/23 05:02:44;;;;;;;9.85;2.80;;;;;;;;;;5046048;28;20041;-66
2021/06/23 05:05:10;;;;;;;12.65;3.42;;;;;;;;;;5038237;28;20072;-66
2021/06/23 05:07:37;;;;;;;7.95;2.97;;;;;;;;;;5039005;28;20050;-66
2021/06/23 05:10:04;;;;;;;8.63;3.55;;;;;;;;;;5042219;28;20041;-66
2021/06/23 05:12:30;;;;;;;13.35;3.15;;;;;;;;;;5040571;28;20069;-66
2021/06/23 05:14:57;;;;;;;11.02;3.30;;;;;;;;;;5042905;28;20037;-66
2021/06/23 05:17:24;;;;;;;11.52;2.70;;;;;;;;;;5041675;28;20045;-66
2021/06/23 05:19:50;;;;;;;13.20;3.88;;;;;;;;;;5041404;28;20463;-66
2021/06/23 05:22:17;;;;;;;8.32;3.30;;;;;;;;;;5042347;28;20089;-66
2021/06/23 05:24:43;;;;;;;10.70;3.55;;;;;;;;;;5038322;28;20059;-66
2021/06/23 05:27:10;;;;;;;16.58;3.35;;;;;;;;;;5038030;28;20492;-66
2021/06/23 05:29:36;;;;;;;10.45;3.47;;;;;;;;;;5040938;28;20053;-66
2021/06/23 05:32:03;;;;;;;10.13;2.97;;;;;;;;;;5038202;28;20036;-66
2021/06/23 05:34:29;;;;;;;15.85;3.97;;;;;;;;;;5043503;28;20056;-66
2021/06/23 05:36:56;;;;;;;10.20;3.80;;;;;;;;;;5034785;28;20048;-66
2021/06/23 05:39:24;;;;;;;8.88;3.97;;;;;;;;;;5038666;28;20048;-66
2021/06/23 05:41:50;;;;;;;14.27;4.50;;;;;;;;;;5039403;28;20120;-66
2021/06/23 05:44:16;;;;;;;10.68;4.13;;;;;;;;;;5039712;28;20046;-66
2021/06/23 05:46:43;;;;;;;11.02;4.13;;;;;;;;;;5039465;28;20580;-66
2021/06/23 05:49:09;;;;;;;12.15;3.72;;;;;;;;;;5043913;28;20041;-66
2021/06/23 05:51:35;;;;;;;9.88;3.63;;;;;;;;;;5042533;28;20460;-66
2021/06/23 05:54:02;;;;;;;15.50;4.15;;;;;;;;;;5038897;28;20048;-66
2021/06/23 05:56:28;;;;;;;8.85;3.60;;;;;;;;;;5043264;28;20045;-66
2021/06/23 05:58:55;;;;;;;12.77;3.67;;;;;;;;;;5049221;28;20057;-66
2021/06/23 06:01:22;;;;;;;12.60;3.47;;;;;;;;;;5049739;28;20102;-66
2021/06/23 06:03:50;;;;;;;16.48;3.70;;;;;;;;;;5046611;28;20052;-66
2021/06/23 06:06:16;;;;;;;13.75;3.25;;;;;;;;;;5046108;28;20038;-66
2021/06/23 06:08:42;;;;;;;12.75;3.33;;;;;;;;;;5043906;28;20457;-66
2021/06/23 06:11:09;;;;;;;14.70;4.13;;;;;;;;;;5042846;28;20049;-67
2021/06/23 06:13:36;;;;;;;9.13;3.35;;;;;;;;;;5041684;28;20049;-67
2021/06/23 06:16:02;;;;;;;10.60;2.85;;;;;;;;;;5042869;28;20165;-67
2021/06/23 06:18:28;;;;;;;12.55;3.67;;;;;;;;;;5043711;28;20047;-67
2021/06/23 06:20:57;;;;;;;10.57;3.42;;;;;;;;;;5044224;28;20075;-67
2021/06/23 06:23:24;;;;;;;10.88;2.78;;;;;;;;;;5046243;28;20137;-72
2021/06/23 06:25:50;;;;;;;12.05;3.00;;;;;;;;;;5042975;28;20048;-67
2021/06/23 06:28:16;;;;;;;9.05;2.80;;;;;;;;;;5044925;28;20105;-67
2021/06/23 06:30:43;;;;;;;12.57;2.78;;;;;;;;;;5041947;28;20049;-66
2021/06/23 06:33:09;;;;;;;10.05;2.90;;;;;;;;;;5046408;28;20040;-66
2021/06/23 06:35:35;;;;;;;12.45;2.63;;;;;;;;;;5043633;28;20109;-66
2021/06/23 06:38:02;;;;;;;13.25;2.65;;;;;;;;;;5044238;28;20057;-66
2021/06/23 06:40:28;;;;;;;11.00;3.10;;;;;;;;;;5041738;28;20040;-66
2021/06/23 06:42:54;;;;;;;9.57;2.45;;;;;;;;;;5042125;28;20511;-66
2021/06/23 06:45:22;;;;;;;11.40;3.10;;;;;;;;;;5042963;28;20076;-66
2021/06/23 06:47:49;;;;;;;10.00;2.67;;;;;;;;;;5046187;28;20143;-66
2021/06/23 06:50:15;;;;;;;15.70;3.35;;;;;;;;;;5046926;28;20071;-66
2021/06/23 06:52:41;;;;;;;11.48;3.08;;;;;;;;;;5046862;28;20053;-66
2021/06/23 06:55:08;;;;;;;10.13;2.58;;;;;;;;;;5046945;28;20431;-66
2021/06/23 06:57:35;;;;;;;9.93;2.90;;;;;;;;;;5043664;28;20045;-66
2021/06/23 07:00:01;;;;;;;13.35;2.47;;;;;;;;;;5044390;28;20037;-68
2021/06/23 07:02:27;;;;;;;10.95;2.42;;;;;;;;;;5043164;28;20041;-68
2021/06/23 07:04:54;;;;;;;10.32;2.72;;;;;;;;;;5042825;28;20060;-66
2021/06/23 07:07:20;;;;;;;9.82;2.47;;;;;;;;;;5039714;28;20527;-67
2021/06/23 07:09:46;;;;;;;9.98;2.70;;;;;;;;;;5037274;28;20071;-66
2021/06/23 07:12:14;;;;;;;13.63;2.70;;;;;;;;;;5039689;28;20106;-66
2021/06/23 07:14:40;;;;;;;11.13;2.38;;;;;;;;;;5041185;28;20489;-66
2021/06/23 07:17:06;;;;;;;11.75;2.80;;;;;;;;;;5044019;28;20077;-66
2021/06/23 07:19:33;;;;;;;8.82;2.50;;;;;;;;;;5045629;28;20468;-67
2021/06/23 07:21:59;;;;;;;9.25;2.35;;;;;;;;;;5045077;28;20048;-67
2021/06/23 07:24:25;;;;;;;9.98;2.50;;;;;;;;;;5044404;28;20043;-66
2021/06/23 07:26:58;;;;;;;9.50;2.30;;;;;;;;;;5045581;28;20114;-66
2021/06/23 07:29:25;;;;;;;7.22;2.10;;;;;;;;;;5044533;28;20032;-67
2021/06/23 07:31:57;;;;;;;10.30;2.20;;;;;;;;;;5034163;28;20072;-66
2021/06/23 07:37:01;;;;;;;7.40;1.92;;;;;;;;;;5040494;28;20064;-66
2021/06/23 07:39:28;;;;;;;6.65;1.98;;;;;;;;;;5048109;28;20090;-67
2021/06/23 07:41:55;;;;;;;9.23;2.80;;;;;;;;;;5044502;28;20076;-67
2021/06/23 07:44:27;;;;;;;8.82;2.70;;;;;;;;;;5031232;28;20047;-67
2021/06/23 07:46:56;;;;;;;8.00;2.40;;;;;;;;;;5036063;28;20045;-67
2021/06/23 07:49:26;;;;;;;11.65;2.35;;;;;;;;;;5042494;28;20404;-67
2021/06/23 07:52:02;;;;;;;11.80;2.63;;;;;;;;;;5036357;28;20037;-66
2021/06/23 07:54:39;;;;;;;10.80;2.65;;;;;;;;;;5039094;28;20053;-67
2021/06/23 08:10:28;;;;;;;8.55;2.63;;;;;;;;;;5045725;28;20068;-66
2021/06/23 08:12:58;;;;;;;13.52;3.33;;;;;;;;;;5045627;28;20045;-66
2021/06/23 08:15:26;;;;;;;9.43;2.80;;;;;;;;;;5047644;28;20056;-67
2021/06/23 08:17:52;;;;;;;12.57;2.92;;;;;;;;;;5048162;28;20098;-66
2021/06/23 08:20:18;;;;;;;15.20;3.25;;;;;;;;;;5046989;28;20073;-67
2021/06/23 08:22:45;;;;;;;12.57;2.38;;;;;;;;;;5047997;28;20490;-66
2021/06/23 08:25:11;;;;;;;10.82;2.78;;;;;;;;;;5047651;28;20069;-66
2021/06/23 08:27:37;;;;;;;11.68;3.17;;;;;;;;;;5047730;28;20040;-66
2021/06/23 08:30:04;;;;;;;7.72;2.35;;;;;;;;;;5047416;28;20198;-67
2021/06/23 08:32:30;;;;;;;11.27;2.55;;;;;;;;;;5046608;28;20048;-67
2021/06/23 08:34:57;;;;;;;10.18;2.67;;;;;;;;;;5044392;28;20062;-66
2021/06/23 08:37:23;;;;;;;14.30;2.90;;;;;;;;;;5040511;28;21246;-67
2021/06/23 08:39:49;;;;;;;9.98;2.88;;;;;;;;;;5037077;28;20164;-67
2021/06/23 08:42:15;;;;;;;13.57;2.90;;;;;;;;;;5044746;28;20115;-67
2021/06/23 08:44:42;;;;;;;14.93;3.00;;;;;;;;;;5039890;28;20075;-66
2021/06/23 08:47:08;;;;;;;11.55;2.80;;;;;;;;;;5039722;28;20412;-66
2021/06/23 08:49:37;;;;;;;13.95;2.97;;;;;;;;;;5047488;28;20412;-67
2021/06/23 08:52:04;;;;;;;11.05;2.75;;;;;;;;;;5043734;28;20077;-67
2021/06/23 08:54:30;;;;;;;13.32;3.40;;;;;;;;;;5041556;28;20041;-66
2021/06/23 08:56:56;;;;;;;9.65;2.47;;;;;;;;;;5048571;28;20111;-67
2021/06/23 08:59:23;;;;;;;12.30;2.83;;;;;;;;;;5041785;28;20502;-66
2021/06/23 09:01:49;;;;;;;10.98;2.47;;;;;;;;;;5035823;28;20049;-67
2021/06/23 09:04:17;;;;;;;11.50;2.55;;;;;;;;;;5046515;28;20053;-67
2021/06/23 09:06:46;;;;;;;11.93;2.97;;;;;;;;;;5043092;28;20204;-67
2021/06/23 09:09:21;;;;;;;9.30;2.88;;;;;;;;;;5048161;28;20498;-67
2021/06/23 09:11:49;;;;;;;12.43;2.83;;;;;;;;;;5040723;28;20045;-67
2021/06/23 09:14:16;;;;;;;11.88;2.70;;;;;;;;;;5041855;28;20041;-66
2021/06/23 09:17:04;;;;;;;7.75;2.30;;;;;;;;;;5046350;28;20425;-66
2021/06/23 09:19:32;;;;;;;9.35;2.40;;;;;;;;;;5052987;28;20190;-67
2021/06/23 09:21:58;;;;;;;11.45;3.00;;;;;;;;;;5048220;28;20107;-67
2021/06/23 09:24:35;;;;;;;10.88;2.75;;;;;;;;;;5045391;28;20112;-68
2021/06/23 09:27:16;;;;;;;9.85;2.85;;;;;;;;;;5053090;28;20164;-67
2021/06/23 09:29:43;;;;;;;7.22;1.88;;;;;;;;;;5050470;28;20401;-68
2021/06/23 09:32:09;;;;;;;14.10;2.58;;;;;;;;;;5048869;28;20033;-68
2021/06/23 09:34:38;;;;;;;9.80;2.40;;;;;;;;;;5045710;28;20045;-67
2021/06/23 09:37:24;;;;;;;11.07;2.30;;;;;;;;;;5050321;28;20041;-67
2021/06/23 09:39:51;;;;;;;12.55;3.28;;;;;;;;;;5051105;28;20055;-67
2021/06/23 09:42:18;;;;;;;11.40;2.47;;;;;;;;;;5048281;28;20044;-67
2021/06/23 09:44:46;;;;;;;9.10;2.42;;;;;;;;;;5050703;28;20053;-67
2021/06/23 09:47:12;;;;;;;9.70;2.30;;;;;;;;;;5053581;28;20044;-67
2021/06/23 09:49:43;;;;;;;9.23;2.33;;;;;;;;;;5051107;28;20091;-67
2021/06/23 09:52:13;;;;;;;11.95;2.38;;;;;;;;;;5052490;28;20044;-67
2021/06/23 09:54:48;;;;;;;9.57;2.75;;;;;;;;;;5050208;28;20040;-67
2021/06/23 09:57:15;;;;;;;10.25;2.40;;;;;;;;;;5049576;28;20151;-67
2021/06/23 09:59:46;;;;;;;10.88;2.40;;;;;;;;;;5044896;28;20045;-68
2021/06/23 10:02:30;;;;;;;11.07;2.78;;;;;;;;;;5048694;28;20109;-67
2021/06/23 10:04:58;;;;;;;10.68;2.60;;;;;;;;;;5040104;28;20492;-67
2021/06/23 10:07:45;;;;;;;6.82;2.10;;;;;;;;;;5044692;28;20048;-67
2021/06/23 10:10:12;;;;;;;9.73;2.17;;;;;;;;;;5042749;28;20114;-67
2021/06/23 10:12:39;;;;;;;7.78;1.85;;;;;;;;;;5036733;28;20029;-67
2021/06/23 10:15:06;;;;;;;7.82;2.38;;;;;;;;;;5036858;28;20044;-69
2021/06/23 10:17:33;;;;;;;14.05;3.30;;;;;;;;;;5043120;28;20049;-67
2021/06/23 10:20:01;;;;;;;20.25;4.80;;;;;;;;;;5039748;28;20488;-69
2021/06/23 10:22:27;;;;;;;7.18;1.80;;;;;;;;;;5043842;28;20038;-69
2021/06/23 10:24:54;;;;;;;9.45;2.47;;;;;;;;;;5044806;28;20061;-69
2021/06/23 10:27:21;;;;;;;6.95;2.03;;;;;;;;;;5046404;28;20045;-68
2021/06/23 10:29:52;;;;;;;8.68;2.70;;;;;;;;;;5041408;28;20124;-67
2021/06/23 10:32:18;;;;;;;8.68;2.45;;;;;;;;;;5048852;28;20036;-67
2021/06/23 10:34:45;;;;;;;8.23;2.65;;;;;;;;;;5043200;28;20049;-67
2021/06/23 10:37:12;;;;;;;10.18;3.58;;;;;;;;;;5050051;28;20052;-67
2021/06/23 10:39:39;;;;;;;10.35;2.33;;;;;;;;;;5042191;28;20139;-67
2021/06/23 10:42:06;;;;;;;12.82;3.75;;;;;;;;;;5039389;28;20056;-67
2021/06/23 10:44:37;;;;;;;7.35;2.65;;;;;;;;;;5050245;28;20041;-67
2021/06/23 10:47:08;;;;;;;9.73;2.15;;;;;;;;;;5050023;28;20117;-67
2021/06/23 10:49:41;;;;;;;11.93;2.40;;;;;;;;;;5046040;28;20110;-72
2021/06/23 10:52:20;;;;;;;10.88;2.50;;;;;;;;;;5042631;28;20125;-69
2021/06/23 10:54:48;;;;;;;8.75;1.80;;;;;;;;;;5047371;28;20044;-69
2021/06/23 10:57:24;;;;;;;9.00;2.80;;;;;;;;;;5042870;28;20037;-69
2021/06/23 10:59:51;;;;;;;9.30;2.00;;;;;;;;;;5047661;28;20052;-69
2021/06/23 11:02:17;;;;;;;9.18;2.42;;;;;;;;;;5047131;28;20049;-69
2021/06/23 11:05:05;;;;;;;12.05;2.05;;;;;;;;;;5048938;28;20102;-69
2021/06/23 11:07:46;;;;;;;10.13;2.15;;;;;;;;;;5049582;28;20061;-68
2021/06/23 11:10:13;;;;;;;7.95;2.33;;;;;;;;;;5046410;28;20120;-69
2021/06/23 11:12:46;;;;;;;8.65;2.20;;;;;;;;;;5041642;28;20049;-69
2021/06/23 11:15:14;;;;;;;15.10;2.90;;;;;;;;;;5048720;28;20041;-69
2021/06/23 11:17:41;;;;;;;10.68;2.78;;;;;;;;;;5040781;28;20389;-69
2021/06/23 11:20:20;;;;;;;10.85;1.98;;;;;;;;;;5048867;28;20114;-69
2021/06/23 11:22:48;;;;;;;7.95;2.50;;;;;;;;;;5045368;28;20053;-69
2021/06/23 11:25:28;;;;;;;8.88;2.38;;;;;;;;;;5047272;28;20041;-69
2021/06/23 11:28:10;;;;;;;4.90;1.85;;;;;;;;;;5045520;28;20136;-69
2021/06/23 11:30:37;;;;;;;8.27;1.75;;;;;;;;;;5041112;28;20117;-69
2021/06/23 11:33:22;;;;;;;9.75;2.38;;;;;;;;;;5043919;28;20524;-69
2021/06/23 11:35:48;;;;;;;10.18;1.83;;;;;;;;;;5038812;28;20057;-69
2021/06/23 11:38:15;;;;;;;9.63;1.95;;;;;;;;;;5042488;28;20069;-69
2021/06/23 11:40:41;;;;;;;11.20;1.70;;;;;;;;;;5044124;28;20042;-69
2021/06/23 11:43:08;;;;;;;5.78;1.63;;;;;;;;;;5036181;28;20045;-69
2021/06/23 11:45:34;;;;;;;8.02;1.83;;;;;;;;;;5045656;28;20048;-69
2021/06/23 11:48:00;;;;;;;7.35;1.85;;;;;;;;;;5047961;28;20048;-69
2021/06/23 11:50:26;;;;;;;8.52;1.80;;;;;;;;;;5044840;28;20119;-69
2021/06/23 11:52:53;;;;;;;6.60;1.60;;;;;;;;;;5043424;28;20072;-74
2021/06/23 11:55:26;;;;;;;8.32;1.95;;;;;;;;;;5040702;28;20572;-68
2021/06/23 11:57:59;;;;;;;6.70;1.48;;;;;;;;;;5036716;28;20045;-69
2021/06/23 12:00:27;;;;;;;7.30;1.70;;;;;;;;;;5035058;28;20546;-69
2021/06/23 12:02:53;;;;;;;9.75;1.90;;;;;;;;;;5046577;28;20098;-69
2021/06/23 12:05:19;;;;;;;8.65;1.80;;;;;;;;;;5045975;28;20041;-69
2021/06/23 12:07:46;;;;;;;5.22;1.40;;;;;;;;;;5039052;28;20049;-69
2021/06/23 12:10:12;;;;;;;11.05;1.92;;;;;;;;;;5048943;28;20060;-69
2021/06/23 12:12:39;;;;;;;9.55;2.63;;;;;;;;;;5039187;28;20056;-69
2021/06/23 12:15:08;;;;;;;7.32;1.83;;;;;;;;;;5047009;28;20045;-69
2021/06/23 12:17:37;;;;;;;8.18;1.70;;;;;;;;;;5035192;28;20132;-69
2021/06/23 12:20:05;;;;;;;7.57;1.63;;;;;;;;;;5047970;28;20045;-69
2021/06/23 12:22:31;;;;;;;12.02;2.00;;;;;;;;;;5049100;28;20048;-69
2021/06/23 12:24:58;;;;;;;7.45;1.92;;;;;;;;;;5046173;28;20048;-69
2021/06/23 12:27:25;;;;;;;8.63;1.65;;;;;;;;;;5044356;28;20465;-69
2021/06/23 12:29:51;;;;;;;11.05;2.33;;;;;;;;;;5045887;28;20144;-69
2021/06/23 12:32:17;;;;;;;10.45;1.98;;;;;;;;;;5045990;28;20207;-69
2021/06/23 12:34:44;;;;;;;8.15;2.33;;;;;;;;;;5042794;28;20553;-69
2021/06/23 12:37:10;;;;;;;8.40;2.10;;;;;;;;;;5047954;28;20080;-69
2021/06/23 12:39:36;;;;;;;7.05;2.10;;;;;;;;;;5047893;28;20037;-69
2021/06/23 12:42:02;;;;;;;8.80;1.67;;;;;;;;;;5042164;28;20563;-69
2021/06/23 12:44:29;;;;;;;5.55;1.70;;;;;;;;;;5042174;28;20048;-69
2021/06/23 12:46:55;;;;;;;9.93;2.35;;;;;;;;;;5044020;28;20048;-69
2021/06/23 12:49:22;;;;;;;9.68;2.05;;;;;;;;;;5040476;28;20045;-69
2021/06/23 12:51:48;;;;;;;10.65;2.33;;;;;;;;;;5038942;28;20033;-68
2021/06/23 12:54:14;;;;;;;6.90;1.70;;;;;;;;;;5044586;28;20104;-68
2021/06/23 12:56:40;;;;;;;9.10;2.20;;;;;;;;;;5040191;28;20053;-68
2021/06/23 12:59:07;;;;;;;6.70;2.13;;;;;;;;;;5047005;28;20051;-68
2021/06/23 13:01:33;;;;;;;9.73;2.33;;;;;;;;;;5042061;28;20045;-68
2021/06/23 13:03:59;;;;;;;7.72;1.95;;;;;;;;;;5046461;28;20060;-68
2021/06/23 13:06:25;;;;;;;6.15;1.60;;;;;;;;;;5047610;28;20048;-68
2021/06/23 13:08:52;;;;;;;7.05;2.00;;;;;;;;;;5044169;28;20488;-68
2021/06/23 13:11:18;;;;;;;6.82;1.60;;;;;;;;;;5047355;28;20041;-68
2021/06/23 13:13:45;;;;;;;7.38;2.00;;;;;;;;;;5039220;28;20079;-68
2021/06/23 13:16:15;;;;;;;7.88;2.13;;;;;;;;;;5039239;28;20106;-68
2021/06/23 13:18:43;;;;;;;9.05;1.88;;;;;;;;;;5035319;28;20061;-68
2021/06/23 13:21:09;;;;;;;7.45;1.73;;;;;;;;;;5038775;28;20116;-68
2021/06/23 13:23:35;;;;;;;8.75;1.70;;;;;;;;;;5040838;28;20136;-68
2021/06/23 13:26:01;;;;;;;6.03;1.55;;;;;;;;;;5043233;28;20045;-68
2021/06/23 13:28:28;;;;;;;7.38;1.80;;;;;;;;;;5041646;28;20496;-68
2021/06/23 13:30:54;;;;;;;7.65;1.85;;;;;;;;;;5041168;28;20037;-68
2021/06/23 13:33:21;;;;;;;6.80;1.73;;;;;;;;;;5036399;28;20034;-68
2021/06/23 13:35:47;;;;;;;6.68;1.85;;;;;;;;;;5046037;28;20061;-68
2021/06/23 13:38:13;;;;;;;6.45;1.60;;;;;;;;;;5040626;28;20057;-69
2021/06/23 13:40:40;;;;;;;6.53;1.85;;;;;;;;;;5046260;28;20045;-68
2021/06/23 13:43:06;;;;;;;8.00;1.40;;;;;;;;;;5046408;28;20444;-68
2021/06/23 13:45:32;;;;;;;7.40;2.10;;;;;;;;;;5044596;28;20059;-68
2021/06/23 13:48:01;;;;;;;8.73;1.80;;;;;;;;;;5044509;28;20049;-68
2021/06/23 13:50:28;;;;;;;8.60;1.75;;;;;;;;;;5044861;28;20064;-68
2021/06/23 13:52:54;;;;;;;9.63;2.30;;;;;;;;;;5040265;28;20037;-68
2021/06/23 13:55:24;;;;;;;7.78;1.60;;;;;;;;;;5039884;28;20037;-68
2021/06/23 13:57:51;;;;;;;6.57;1.92;;;;;;;;;;5038978;28;20755;-68
2021/06/23 14:00:17;;;;;;;7.70;1.92;;;;;;;;;;5040531;28;20045;-68
2021/06/23 14:02:44;;;;;;;5.80;1.70;;;;;;;;;;5047288;28;20045;-68
2021/06/23 14:05:11;;;;;;;8.15;1.45;;;;;;;;;;5045729;28;20166;-68
2021/06/23 14:07:37;;;;;;;10.65;1.98;;;;;;;;;;5045820;28;20037;-68
2021/06/23 14:10:04;;;;;;;8.07;2.17;;;;;;;;;;5045931;28;20468;-68
2021/06/23 14:12:30;;;;;;;6.55;1.70;;;;;;;;;;5045940;28;20033;-68
2021/06/23 14:14:57;;;;;;;10.30;1.63;;;;;;;;;;5047856;28;20081;-68
2021/06/23 14:17:23;;;;;;;6.38;1.70;;;;;;;;;;5048166;28;20831;-68
2021/06/23 14:19:51;;;;;;;6.25;1.60;;;;;;;;;;5046996;28;20480;-68
2021/06/23 14:22:18;;;;;;;10.82;2.45;;;;;;;;;;5050926;28;20075;-68
2021/06/23 14:24:44;;;;;;;10.82;2.28;;;;;;;;;;5044965;28;20067;-68
2021/06/23 14:27:11;;;;;;;8.02;1.63;;;;;;;;;;5047335;28;20151;-68
2021/06/23 14:29:37;;;;;;;8.23;1.90;;;;;;;;;;5046364;28;20036;-67
2021/06/23 14:32:03;;;;;;;5.70;1.60;;;;;;;;;;5040079;28;20048;-68
2021/06/23 14:34:29;;;;;;;7.15;1.85;;;;;;;;;;5043447;28;20038;-68
2021/06/23 14:36:56;;;;;;;6.60;1.55;;;;;;;;;;5043372;28;20073;-68
2021/06/23 14:39:22;;;;;;;5.80;1.52;;;;;;;;;;5045817;28;20111;-68
2021/06/23 14:41:49;;;;;;;8.70;1.88;;;;;;;;;;5049097;28;20136;-68
2021/06/23 14:44:15;;;;;;;11.88;1.83;;;;;;;;;;5050570;28;20051;-68
2021/06/23 14:46:43;;;;;;;7.47;1.60;;;;;;;;;;5046919;28;20053;-68
2021/06/23 14:49:09;;;;;;;7.55;1.80;;;;;;;;;;5047803;28;20053;-68
2021/06/23 14:51:35;;;;;;;8.23;1.70;;;;;;;;;;5049889;28;20059;-69
2021/06/23 14:54:01;;;;;;;10.05;1.42;;;;;;;;;;5046100;28;20041;-69